Eaton, New Hampshire
Current Conditions -  °F | °C
As of 7:54 PM on Tuesday 27 Jan 2015 (Local Time) from KIZG Reporting Station
Light Snow Light Snow  
Wind Chill: -2°   Ceiling: 800
Heat Index: 12°   Visibility: 0.75mi
Dew Point:   Wind: 12mph
Humidity: 80%   Direction: 340°NNW
Pressure: 29.65"   Gusts: 18mph
Location:  43.9094°N, 71.0845°W
Report Text: KIZG 280054Z AUTO 34010G16KT 3/4SM -SN VV008 M11/M14 A2965 RMK AO2 SLP050 P0003 T11111139
Loading
Personal Weather Stations






























Interactive Weather Map New forecast layout! Learn more

10-Day Weather Forecast

Advertisements
Track Severe Weather on mobile